sensor_id;sensor_type;location;lat;lon;timestamp;pressure;altitude;pressure_sealevel;temperature;humidity
40994;BME280;26722;43.212;27.932;2023-04-19T00:01:21;55124.53;;;-146.72;73.86
40994;BME280;26722;43.212;27.932;2023-04-19T00:03:49;55128.75;;;-146.72;73.73
40994;BME280;26722;43.212;27.932;2023-04-19T00:06:14;55122.44;;;-146.72;73.78
40994;BME280;26722;43.212;27.932;2023-04-19T00:08:40;55111.88;;;-146.72;74.18
40994;BME280;26722;43.212;27.932;2023-04-19T00:11:07;55141.44;;;-146.72;74.57
40994;BME280;26722;43.212;27.932;2023-04-19T00:13:33;55111.88;;;-146.72;74.83
40994;BME280;26722;43.212;27.932;2023-04-19T00:15:58;55107.66;;;-146.72;74.81
40994;BME280;26722;43.212;27.932;2023-04-19T00:18:24;55105.53;;;-146.72;74.36
40994;BME280;26722;43.212;27.932;2023-04-19T00:20:49;55116.09;;;-146.72;74.00
40994;BME280;26722;43.212;27.932;2023-04-19T00:23:15;55132.97;;;-146.72;74.29
40994;BME280;26722;43.212;27.932;2023-04-19T00:25:41;55111.88;;;-146.72;74.25
40994;BME280;26722;43.212;27.932;2023-04-19T00:28:06;55113.97;;;-146.72;74.68
40994;BME280;26722;43.212;27.932;2023-04-19T00:30:32;55109.75;;;-146.72;74.60
40994;BME280;26722;43.212;27.932;2023-04-19T00:32:57;55090.75;;;-146.72;74.58
40994;BME280;26722;43.212;27.932;2023-04-19T00:35:23;55107.66;;;-146.72;74.24
40994;BME280;26722;43.212;27.932;2023-04-19T00:37:48;55111.88;;;-146.72;74.39
40994;BME280;26722;43.212;27.932;2023-04-19T00:40:14;55105.53;;;-146.72;75.17
40994;BME280;26722;43.212;27.932;2023-04-19T00:42:39;55109.75;;;-146.72;75.80
40994;BME280;26722;43.212;27.932;2023-04-19T00:45:05;55105.53;;;-146.72;75.44
40994;BME280;26722;43.212;27.932;2023-04-19T00:47:31;55124.53;;;-146.72;75.36
40994;BME280;26722;43.212;27.932;2023-04-19T00:49:57;55107.66;;;-146.72;74.75
40994;BME280;26722;43.212;27.932;2023-04-19T00:52:22;55126.66;;;-146.72;74.50
40994;BME280;26722;43.212;27.932;2023-04-19T00:54:48;55111.88;;;-146.72;74.41
40994;BME280;26722;43.212;27.932;2023-04-19T00:57:14;55107.66;;;-146.72;75.14
40994;BME280;26722;43.212;27.932;2023-04-19T00:59:41;55103.44;;;-146.72;75.61
40994;BME280;26722;43.212;27.932;2023-04-19T01:02:07;55120.31;;;-146.72;76.17
40994;BME280;26722;43.212;27.932;2023-04-19T01:04:33;55132.97;;;-146.72;76.08
40994;BME280;26722;43.212;27.932;2023-04-19T01:07:00;55113.97;;;-146.72;76.73
40994;BME280;26722;43.212;27.932;2023-04-19T01:09:26;55109.75;;;-146.72;76.96
40994;BME280;26722;43.212;27.932;2023-04-19T01:11:51;55124.53;;;-146.72;77.81
40994;BME280;26722;43.212;27.932;2023-04-19T01:14:17;55107.66;;;-146.72;77.80
40994;BME280;26722;43.212;27.932;2023-04-19T01:16:43;55126.66;;;-146.72;78.08
40994;BME280;26722;43.212;27.932;2023-04-19T01:19:10;55132.97;;;-146.72;78.17
40994;BME280;26722;43.212;27.932;2023-04-19T01:21:36;55107.66;;;-146.72;78.75
40994;BME280;26722;43.212;27.932;2023-04-19T01:24:07;55107.66;;;-146.72;79.25
40994;BME280;26722;43.212;27.932;2023-04-19T01:26:32;55094.97;;;-146.72;80.03
40994;BME280;26722;43.212;27.932;2023-04-19T01:28:58;55101.31;;;-146.72;80.49
40994;BME280;26722;43.212;27.932;2023-04-19T01:31:23;55103.44;;;-146.72;80.68
40994;BME280;26722;43.212;27.932;2023-04-19T01:33:49;55103.44;;;-146.72;80.44
40994;BME280;26722;43.212;27.932;2023-04-19T01:36:14;55116.09;;;-146.72;80.10
40994;BME280;26722;43.212;27.932;2023-04-19T01:38:40;55105.53;;;-146.72;77.97
40994;BME280;26722;43.212;27.932;2023-04-19T01:41:05;55107.66;;;-146.72;78.18
40994;BME280;26722;43.212;27.932;2023-04-19T01:43:32;55103.44;;;-146.72;78.02
40994;BME280;26722;43.212;27.932;2023-04-19T01:45:57;55120.31;;;-146.72;78.17
40994;BME280;26722;43.212;27.932;2023-04-19T01:48:23;55099.19;;;-146.72;78.13
40994;BME280;26722;43.212;27.932;2023-04-19T01:50:48;55105.53;;;-146.72;78.52
40994;BME280;26722;43.212;27.932;2023-04-19T01:53:14;55111.88;;;-146.72;77.94
40994;BME280;26722;43.212;27.932;2023-04-19T01:55:39;55107.66;;;-146.72;77.78
40994;BME280;26722;43.212;27.932;2023-04-19T01:58:05;55107.66;;;-146.72;78.29
40994;BME280;26722;43.212;27.932;2023-04-19T02:00:31;55122.44;;;-146.72;78.28
40994;BME280;26722;43.212;27.932;2023-04-19T02:02:56;55090.75;;;-146.72;78.49
40994;BME280;26722;43.212;27.932;2023-04-19T02:05:22;55088.66;;;-146.72;78.47
40994;BME280;26722;43.212;27.932;2023-04-19T02:07:48;55099.19;;;-146.72;78.53
40994;BME280;26722;43.212;27.932;2023-04-19T02:10:13;55099.19;;;-146.72;78.23
40994;BME280;26722;43.212;27.932;2023-04-19T02:12:39;55103.44;;;-146.72;76.74
40994;BME280;26722;43.212;27.932;2023-04-19T02:15:06;55088.66;;;-146.72;76.95
40994;BME280;26722;43.212;27.932;2023-04-19T02:17:31;55103.44;;;-146.72;76.90
40994;BME280;26722;43.212;27.932;2023-04-19T02:19:57;55116.09;;;-146.72;76.46
40994;BME280;26722;43.212;27.932;2023-04-19T02:22:22;55107.66;;;-146.72;76.61
40994;BME280;26722;43.212;27.932;2023-04-19T02:24:49;55116.09;;;-146.72;77.18
40994;BME280;26722;43.212;27.932;2023-04-19T02:27:15;55122.44;;;-146.72;78.04
40994;BME280;26722;43.212;27.932;2023-04-19T02:29:40;55126.66;;;-146.72;78.25
40994;BME280;26722;43.212;27.932;2023-04-19T02:32:06;55107.66;;;-146.72;78.28
40994;BME280;26722;43.212;27.932;2023-04-19T02:34:33;55090.75;;;-146.72;78.77
40994;BME280;26722;43.212;27.932;2023-04-19T02:36:59;55105.53;;;-146.72;79.11
40994;BME280;26722;43.212;27.932;2023-04-19T02:39:24;55113.97;;;-146.72;77.78
40994;BME280;26722;43.212;27.932;2023-04-19T02:41:50;55113.97;;;-146.72;77.16
40994;BME280;26722;43.212;27.932;2023-04-19T02:44:16;55101.31;;;-146.72;77.42
40994;BME280;26722;43.212;27.932;2023-04-19T02:46:50;55120.31;;;-146.72;76.78
40994;BME280;26722;43.212;27.932;2023-04-19T02:49:17;55092.88;;;-146.72;77.12
40994;BME280;26722;43.212;27.932;2023-04-19T02:51:42;55101.31;;;-146.72;76.76
40994;BME280;26722;43.212;27.932;2023-04-19T02:54:08;55103.44;;;-146.72;76.13
40994;BME280;26722;43.212;27.932;2023-04-19T02:56:34;55103.44;;;-146.72;76.56
40994;BME280;26722;43.212;27.932;2023-04-19T02:59:00;55099.19;;;-146.72;76.71
40994;BME280;26722;43.212;27.932;2023-04-19T03:01:26;55116.09;;;-146.72;76.89
40994;BME280;26722;43.212;27.932;2023-04-19T03:03:51;55088.66;;;-146.72;77.05
40994;BME280;26722;43.212;27.932;2023-04-19T03:06:17;55090.75;;;-146.72;76.80
40994;BME280;26722;43.212;27.932;2023-04-19T03:08:42;55120.31;;;-146.72;76.54
40994;BME280;26722;43.212;27.932;2023-04-19T03:11:09;55094.97;;;-146.72;76.50
40994;BME280;26722;43.212;27.932;2023-04-19T03:13:35;55116.09;;;-146.72;76.04
40994;BME280;26722;43.212;27.932;2023-04-19T03:16:00;55094.97;;;-146.72;76.52
40994;BME280;26722;43.212;27.932;2023-04-19T03:18:26;55090.75;;;-146.72;76.54
40994;BME280;26722;43.212;27.932;2023-04-19T03:20:51;55109.75;;;-146.72;76.37
40994;BME280;26722;43.212;27.932;2023-04-19T03:23:17;55124.53;;;-146.72;76.04
40994;BME280;26722;43.212;27.932;2023-04-19T03:25:42;55120.31;;;-146.72;76.90
40994;BME280;26722;43.212;27.932;2023-04-19T03:28:08;55120.31;;;-146.72;77.36
40994;BME280;26722;43.212;27.932;2023-04-19T03:30:33;55103.44;;;-146.72;78.11
40994;BME280;26722;43.212;27.932;2023-04-19T03:32:59;55126.66;;;-146.72;78.26
40994;BME280;26722;43.212;27.932;2023-04-19T03:35:25;55128.75;;;-146.72;78.62
40994;BME280;26722;43.212;27.932;2023-04-19T03:37:51;55111.88;;;-146.72;79.52
40994;BME280;26722;43.212;27.932;2023-04-19T03:40:16;55111.88;;;-146.72;79.36
40994;BME280;26722;43.212;27.932;2023-04-19T03:42:42;55126.66;;;-146.72;79.66
40994;BME280;26722;43.212;27.932;2023-04-19T03:45:08;55116.09;;;-146.72;79.72
40994;BME280;26722;43.212;27.932;2023-04-19T03:47:33;55103.44;;;-146.72;79.27
40994;BME280;26722;43.212;27.932;2023-04-19T03:49:59;55128.75;;;-146.72;79.48
40994;BME280;26722;43.212;27.932;2023-04-19T03:52:24;55124.53;;;-146.72;79.65
40994;BME280;26722;43.212;27.932;2023-04-19T03:54:50;55124.53;;;-146.72;80.18
40994;BME280;26722;43.212;27.932;2023-04-19T03:57:16;55120.31;;;-146.72;80.01
40994;BME280;26722;43.212;27.932;2023-04-19T03:59:42;55111.88;;;-146.72;79.66
40994;BME280;26722;43.212;27.932;2023-04-19T04:02:07;55116.09;;;-146.72;79.48
40994;BME280;26722;43.212;27.932;2023-04-19T04:04:33;55122.44;;;-146.72;79.91
40994;BME280;26722;43.212;27.932;2023-04-19T04:06:58;55120.31;;;-146.72;80.43
40994;BME280;26722;43.212;27.932;2023-04-19T04:09:24;55111.88;;;-146.72;80.38
40994;BME280;26722;43.212;27.932;2023-04-19T04:11:49;55128.75;;;-146.72;79.75
40994;BME280;26722;43.212;27.932;2023-04-19T04:14:15;55105.53;;;-146.72;79.18
40994;BME280;26722;43.212;27.932;2023-04-19T04:16:40;55132.97;;;-146.72;79.07
40994;BME280;26722;43.212;27.932;2023-04-19T04:19:06;55120.31;;;-146.72;78.96
40994;BME280;26722;43.212;27.932;2023-04-19T04:21:32;55128.75;;;-146.72;79.23
40994;BME280;26722;43.212;27.932;2023-04-19T04:23:57;55126.66;;;-146.72;78.93
40994;BME280;26722;43.212;27.932;2023-04-19T04:26:26;55120.31;;;-146.72;79.15
40994;BME280;26722;43.212;27.932;2023-04-19T04:28:55;55120.31;;;-146.72;78.56
40994;BME280;26722;43.212;27.932;2023-04-19T04:31:21;55099.19;;;-146.72;78.47
40994;BME280;26722;43.212;27.932;2023-04-19T04:33:47;55128.75;;;-146.72;78.77
40994;BME280;26722;43.212;27.932;2023-04-19T04:36:12;55126.66;;;-146.72;78.77
40994;BME280;26722;43.212;27.932;2023-04-19T04:38:38;55097.09;;;-146.72;78.54
40994;BME280;26722;43.212;27.932;2023-04-19T04:41:04;55107.66;;;-146.72;77.88
40994;BME280;26722;43.212;27.932;2023-04-19T04:43:30;55073.88;;;-146.72;77.07
40994;BME280;26722;43.212;27.932;2023-04-19T04:45:56;55107.66;;;-146.72;76.86
40994;BME280;26722;43.212;27.932;2023-04-19T04:48:23;55105.53;;;-146.72;77.17
40994;BME280;26722;43.212;27.932;2023-04-19T04:50:49;55107.66;;;-146.72;77.16
40994;BME280;26722;43.212;27.932;2023-04-19T04:53:15;55107.66;;;-146.72;77.57
40994;BME280;26722;43.212;27.932;2023-04-19T04:55:40;55116.09;;;-146.72;77.82
40994;BME280;26722;43.212;27.932;2023-04-19T04:58:06;55126.66;;;-146.72;78.43
40994;BME280;26722;43.212;27.932;2023-04-19T05:00:32;55124.53;;;-146.72;78.15
40994;BME280;26722;43.212;27.932;2023-04-19T05:02:58;55126.66;;;-146.72;78.91
40994;BME280;26722;43.212;27.932;2023-04-19T05:05:23;55145.66;;;-146.72;78.94
40994;BME280;26722;43.212;27.932;2023-04-19T05:07:49;55126.66;;;-146.72;79.49
40994;BME280;26722;43.212;27.932;2023-04-19T05:10:14;55118.19;;;-146.72;78.75
40994;BME280;26722;43.212;27.932;2023-04-19T05:12:40;55118.19;;;-146.72;78.86
40994;BME280;26722;43.212;27.932;2023-04-19T05:15:06;55120.31;;;-146.72;78.85
40994;BME280;26722;43.212;27.932;2023-04-19T05:17:32;55111.88;;;-146.72;78.44
40994;BME280;26722;43.212;27.932;2023-04-19T05:19:57;55120.31;;;-146.72;79.14
40994;BME280;26722;43.212;27.932;2023-04-19T05:22:23;55116.09;;;-146.72;79.43
40994;BME280;26722;43.212;27.932;2023-04-19T05:24:48;55137.22;;;-146.72;79.17
40994;BME280;26722;43.212;27.932;2023-04-19T05:27:15;55145.66;;;-146.72;79.25
40994;BME280;26722;43.212;27.932;2023-04-19T05:29:40;55120.31;;;-146.72;79.04
40994;BME280;26722;43.212;27.932;2023-04-19T05:32:06;55128.75;;;-146.72;78.60
40994;BME280;26722;43.212;27.932;2023-04-19T05:34:32;55103.44;;;-146.72;77.63
40994;BME280;26722;43.212;27.932;2023-04-19T05:36:58;55107.66;;;-146.72;76.25
40994;BME280;26722;43.212;27.932;2023-04-19T05:39:24;55107.66;;;-146.72;75.88
40994;BME280;26722;43.212;27.932;2023-04-19T05:41:49;55113.97;;;-146.72;75.52
40994;BME280;26722;43.212;27.932;2023-04-19T05:44:15;55103.44;;;-146.72;75.04
40994;BME280;26722;43.212;27.932;2023-04-19T05:46:40;55116.09;;;-146.72;75.19
40994;BME280;26722;43.212;27.932;2023-04-19T05:49:06;55118.19;;;-146.72;75.87
40994;BME280;26722;43.212;27.932;2023-04-19T05:51:31;55120.31;;;-146.72;75.72
40994;BME280;26722;43.212;27.932;2023-04-19T05:53:57;55101.31;;;-146.72;76.42
40994;BME280;26722;43.212;27.932;2023-04-19T05:56:24;55107.66;;;-146.72;75.87
40994;BME280;26722;43.212;27.932;2023-04-19T05:58:49;55137.22;;;-146.72;76.45
40994;BME280;26722;43.212;27.932;2023-04-19T06:01:15;55103.44;;;-146.72;76.32
40994;BME280;26722;43.212;27.932;2023-04-19T06:03:41;55120.31;;;-146.72;76.08
40994;BME280;26722;43.212;27.932;2023-04-19T06:06:06;55107.66;;;-146.72;76.11
40994;BME280;26722;43.212;27.932;2023-04-19T06:08:32;55116.09;;;-146.72;76.30
40994;BME280;26722;43.212;27.932;2023-04-19T06:10:58;55107.66;;;-146.72;75.88
40994;BME280;26722;43.212;27.932;2023-04-19T06:13:24;55116.09;;;-146.72;76.53
40994;BME280;26722;43.212;27.932;2023-04-19T06:15:49;55116.09;;;-146.72;77.10
40994;BME280;26722;43.212;27.932;2023-04-19T06:18:15;55120.31;;;-146.72;77.68
40994;BME280;26722;43.212;27.932;2023-04-19T06:20:40;55111.88;;;-146.72;77.37
40994;BME280;26722;43.212;27.932;2023-04-19T06:23:06;55103.44;;;-146.72;76.43
40994;BME280;26722;43.212;27.932;2023-04-19T06:25:32;55090.75;;;-146.72;75.29
40994;BME280;26722;43.212;27.932;2023-04-19T06:27:58;55094.97;;;-146.72;74.31
40994;BME280;26722;43.212;27.932;2023-04-19T06:30:23;55109.75;;;-146.72;74.01
40994;BME280;26722;43.212;27.932;2023-04-19T06:32:49;55092.88;;;-146.72;74.70
40994;BME280;26722;43.212;27.932;2023-04-19T06:35:15;55124.53;;;-146.72;75.77
40994;BME280;26722;43.212;27.932;2023-04-19T06:37:40;55107.66;;;-146.72;74.79
40994;BME280;26722;43.212;27.932;2023-04-19T06:40:06;55094.97;;;-146.72;74.66
40994;BME280;26722;43.212;27.932;2023-04-19T06:42:33;55105.53;;;-146.72;75.85
40994;BME280;26722;43.212;27.932;2023-04-19T06:44:58;55149.88;;;-146.72;74.75
40994;BME280;26722;43.212;27.932;2023-04-19T06:47:24;55116.09;;;-146.72;75.37
40994;BME280;26722;43.212;27.932;2023-04-19T06:49:50;55116.09;;;-146.72;75.53
40994;BME280;26722;43.212;27.932;2023-04-19T06:52:15;55126.66;;;-146.72;75.01
40994;BME280;26722;43.212;27.932;2023-04-19T06:54:41;55094.97;;;-146.72;74.83
40994;BME280;26722;43.212;27.932;2023-04-19T06:57:07;55101.31;;;-146.72;74.92
40994;BME280;26722;43.212;27.932;2023-04-19T06:59:32;55084.44;;;-146.72;74.54
40994;BME280;26722;43.212;27.932;2023-04-19T07:01:58;55099.19;;;-146.72;74.12
40994;BME280;26722;43.212;27.932;2023-04-19T07:04:24;55090.75;;;-146.72;73.62
40994;BME280;26722;43.212;27.932;2023-04-19T07:06:50;55088.66;;;-146.72;73.22
40994;BME280;26722;43.212;27.932;2023-04-19T07:09:16;55086.53;;;-146.72;73.04
40994;BME280;26722;43.212;27.932;2023-04-19T07:11:41;55082.31;;;-146.72;71.50
40994;BME280;26722;43.212;27.932;2023-04-19T07:14:07;55061.19;;;-146.72;71.95
40994;BME280;26722;43.212;27.932;2023-04-19T07:16:32;55073.88;;;-146.72;70.83
40994;BME280;26722;43.212;27.932;2023-04-19T07:18:58;55069.66;;;-146.72;71.24
40994;BME280;26722;43.212;27.932;2023-04-19T07:21:23;55082.31;;;-146.72;71.35
40994;BME280;26722;43.212;27.932;2023-04-19T07:23:51;55071.75;;;-146.72;71.46
40994;BME280;26722;43.212;27.932;2023-04-19T07:26:16;55090.75;;;-146.72;71.12
40994;BME280;26722;43.212;27.932;2023-04-19T07:28:42;55056.97;;;-146.72;71.03
40994;BME280;26722;43.212;27.932;2023-04-19T07:31:13;55061.19;;;-146.72;70.95
40994;BME280;26722;43.212;27.932;2023-04-19T07:33:39;55073.88;;;-146.72;71.06
40994;BME280;26722;43.212;27.932;2023-04-19T07:36:05;55084.44;;;-146.72;71.33
40994;BME280;26722;43.212;27.932;2023-04-19T07:38:31;55071.75;;;-146.72;71.60
40994;BME280;26722;43.212;27.932;2023-04-19T07:40:56;55054.88;;;-146.72;71.82
40994;BME280;26722;43.212;27.932;2023-04-19T07:43:22;55061.19;;;-146.72;72.15
40994;BME280;26722;43.212;27.932;2023-04-19T07:45:47;55063.31;;;-146.72;72.18
40994;BME280;26722;43.212;27.932;2023-04-19T07:48:13;55052.75;;;-146.72;71.23
40994;BME280;26722;43.212;27.932;2023-04-19T07:50:38;55056.97;;;-146.72;70.35
40994;BME280;26722;43.212;27.932;2023-04-19T07:53:04;55065.41;;;-146.72;70.38
40994;BME280;26722;43.212;27.932;2023-04-19T07:55:30;55082.31;;;-146.72;68.14
40994;BME280;26722;43.212;27.932;2023-04-19T07:57:55;55069.66;;;-146.72;69.18
40994;BME280;26722;43.212;27.932;2023-04-19T08:00:21;55061.19;;;-146.72;68.78
40994;BME280;26722;43.212;27.932;2023-04-19T08:02:47;55084.44;;;-146.72;69.44
40994;BME280;26722;43.212;27.932;2023-04-19T08:05:16;55080.19;;;-146.72;71.01
40994;BME280;26722;43.212;27.932;2023-04-19T08:07:42;55092.88;;;-146.72;71.66
40994;BME280;26722;43.212;27.932;2023-04-19T08:10:08;55099.19;;;-146.72;71.66
40994;BME280;26722;43.212;27.932;2023-04-19T08:12:34;55069.66;;;-146.72;72.20
40994;BME280;26722;43.212;27.932;2023-04-19T08:15:01;55099.19;;;-146.72;74.29
40994;BME280;26722;43.212;27.932;2023-04-19T08:17:27;55086.53;;;-146.72;74.71
40994;BME280;26722;43.212;27.932;2023-04-19T08:19:52;55099.19;;;-146.72;75.14
40994;BME280;26722;43.212;27.932;2023-04-19T08:22:19;55094.97;;;-146.72;75.67
40994;BME280;26722;43.212;27.932;2023-04-19T08:24:47;55086.53;;;-146.72;76.15
40994;BME280;26722;43.212;27.932;2023-04-19T08:27:18;55111.88;;;-146.72;76.56
40994;BME280;26722;43.212;27.932;2023-04-19T08:29:46;55107.66;;;-146.72;77.39
40994;BME280;26722;43.212;27.932;2023-04-19T08:32:12;55084.44;;;-146.72;77.61
40994;BME280;26722;43.212;27.932;2023-04-19T08:34:38;55099.19;;;-146.72;77.65
40994;BME280;26722;43.212;27.932;2023-04-19T08:37:05;55107.66;;;-146.72;77.39
40994;BME280;26722;43.212;27.932;2023-04-19T08:39:32;55092.88;;;-146.72;77.60
40994;BME280;26722;43.212;27.932;2023-04-19T08:42:05;55120.31;;;-146.72;78.13
40994;BME280;26722;43.212;27.932;2023-04-19T08:44:32;55122.44;;;-146.72;78.89
40994;BME280;26722;43.212;27.932;2023-04-19T08:46:58;55097.09;;;-146.72;78.85
40994;BME280;26722;43.212;27.932;2023-04-19T08:49:29;55116.09;;;-146.72;78.31
40994;BME280;26722;43.212;27.932;2023-04-19T08:51:58;55094.97;;;-146.72;77.38
40994;BME280;26722;43.212;27.932;2023-04-19T08:54:28;55111.88;;;-146.72;75.83
40994;BME280;26722;43.212;27.932;2023-04-19T08:56:55;55126.66;;;-146.72;75.31
40994;BME280;26722;43.212;27.932;2023-04-19T08:59:22;55116.09;;;-146.72;74.21
40994;BME280;26722;43.212;27.932;2023-04-19T09:01:48;55099.19;;;-146.72;74.00
40994;BME280;26722;43.212;27.932;2023-04-19T09:04:13;55103.44;;;-146.72;72.62
40994;BME280;26722;43.212;27.932;2023-04-19T09:06:39;55113.97;;;-146.72;72.35
40994;BME280;26722;43.212;27.932;2023-04-19T09:09:22;55124.53;;;-146.72;72.62
40994;BME280;26722;43.212;27.932;2023-04-19T09:11:48;55101.31;;;-146.72;73.37
40994;BME280;26722;43.212;27.932;2023-04-19T09:14:16;55088.66;;;-146.72;73.85
40994;BME280;26722;43.212;27.932;2023-04-19T09:16:42;55099.19;;;-146.72;72.15
40994;BME280;26722;43.212;27.932;2023-04-19T09:19:08;55099.19;;;-146.72;71.71
40994;BME280;26722;43.212;27.932;2023-04-19T09:21:34;55078.09;;;-146.72;71.35
40994;BME280;26722;43.212;27.932;2023-04-19T09:24:00;55105.53;;;-146.72;70.65
40994;BME280;26722;43.212;27.932;2023-04-19T09:26:27;55082.31;;;-146.72;69.95
40994;BME280;26722;43.212;27.932;2023-04-19T09:29:00;55118.19;;;-146.72;70.21
40994;BME280;26722;43.212;27.932;2023-04-19T09:31:31;55090.75;;;-146.72;71.11
40994;BME280;26722;43.212;27.932;2023-04-19T09:33:57;55090.75;;;-146.72;69.42
40994;BME280;26722;43.212;27.932;2023-04-19T09:36:30;55082.31;;;-146.72;70.42
40994;BME280;26722;43.212;27.932;2023-04-19T09:38:56;55090.75;;;-146.72;70.04
40994;BME280;26722;43.212;27.932;2023-04-19T09:41:23;55105.53;;;-146.72;70.73
40994;BME280;26722;43.212;27.932;2023-04-19T09:43:50;55088.66;;;-146.72;71.16
40994;BME280;26722;43.212;27.932;2023-04-19T09:46:29;55086.53;;;-146.72;71.93
40994;BME280;26722;43.212;27.932;2023-04-19T09:49:05;55107.66;;;-146.72;73.25
40994;BME280;26722;43.212;27.932;2023-04-19T09:51:50;55105.53;;;-146.72;74.47
40994;BME280;26722;43.212;27.932;2023-04-19T09:54:17;55103.44;;;-146.72;74.84
40994;BME280;26722;43.212;27.932;2023-04-19T09:56:44;55105.53;;;-146.72;75.36
40994;BME280;26722;43.212;27.932;2023-04-19T09:59:10;55094.97;;;-146.72;75.58
40994;BME280;26722;43.212;27.932;2023-04-19T10:01:43;55111.88;;;-146.72;76.45
40994;BME280;26722;43.212;27.932;2023-04-19T10:04:11;55120.31;;;-146.72;76.44
40994;BME280;26722;43.212;27.932;2023-04-19T10:06:39;55118.19;;;-146.72;76.91
40994;BME280;26722;43.212;27.932;2023-04-19T10:09:06;55116.09;;;-146.72;76.95
40994;BME280;26722;43.212;27.932;2023-04-19T10:11:36;55111.88;;;-146.72;76.47
40994;BME280;26722;43.212;27.932;2023-04-19T10:14:10;55090.75;;;-146.72;76.36
40994;BME280;26722;43.212;27.932;2023-04-19T10:16:37;55101.31;;;-146.72;73.83
40994;BME280;26722;43.212;27.932;2023-04-19T10:19:14;55097.09;;;-146.72;72.74
40994;BME280;26722;43.212;27.932;2023-04-19T10:21:41;55086.53;;;-146.72;72.13
40994;BME280;26722;43.212;27.932;2023-04-19T10:24:08;55082.31;;;-146.72;71.14
40994;BME280;26722;43.212;27.932;2023-04-19T10:29:57;55105.53;;;-146.72;70.29
40994;BME280;26722;43.212;27.932;2023-04-19T10:32:26;55088.66;;;-146.72;69.51
40994;BME280;26722;43.212;27.932;2023-04-19T10:34:52;55132.97;;;-146.72;70.23
40994;BME280;26722;43.212;27.932;2023-04-19T10:37:22;55090.75;;;-146.72;71.09
40994;BME280;26722;43.212;27.932;2023-04-19T10:39:48;55080.19;;;-146.72;70.60
40994;BME280;26722;43.212;27.932;2023-04-19T10:42:15;55099.19;;;-146.72;70.90
40994;BME280;26722;43.212;27.932;2023-04-19T10:44:40;55099.19;;;-146.72;70.55
40994;BME280;26722;43.212;27.932;2023-04-19T10:47:06;55082.31;;;-146.72;68.70
40994;BME280;26722;43.212;27.932;2023-04-19T10:49:43;55137.22;;;-146.72;69.62
40994;BME280;26722;43.212;27.932;2023-04-19T10:52:25;55086.53;;;-146.72;70.59
40994;BME280;26722;43.212;27.932;2023-04-19T10:54:55;55097.09;;;-146.72;70.47
40994;BME280;26722;43.212;27.932;2023-04-19T10:57:21;55111.88;;;-146.72;69.38
40994;BME280;26722;43.212;27.932;2023-04-19T11:00:19;55103.44;;;-146.72;69.79
40994;BME280;26722;43.212;27.932;2023-04-19T11:02:49;55090.75;;;-146.72;70.52
40994;BME280;26722;43.212;27.932;2023-04-19T11:05:15;55094.97;;;-146.72;69.69
40994;BME280;26722;43.212;27.932;2023-04-19T11:07:41;55086.53;;;-146.72;69.74
40994;BME280;26722;43.212;27.932;2023-04-19T11:10:07;55092.88;;;-146.72;70.63
40994;BME280;26722;43.212;27.932;2023-04-19T11:12:33;55094.97;;;-146.72;71.28
40994;BME280;26722;43.212;27.932;2023-04-19T11:14:59;55090.75;;;-146.72;71.33
40994;BME280;26722;43.212;27.932;2023-04-19T11:17:29;55073.88;;;-146.72;70.56
40994;BME280;26722;43.212;27.932;2023-04-19T11:20:04;55086.53;;;-146.72;70.11
40994;BME280;26722;43.212;27.932;2023-04-19T11:22:37;55103.44;;;-146.72;69.76
40994;BME280;26722;43.212;27.932;2023-04-19T11:25:20;55088.66;;;-146.72;70.79
40994;BME280;26722;43.212;27.932;2023-04-19T11:27:50;55118.19;;;-146.72;70.99
40994;BME280;26722;43.212;27.932;2023-04-19T11:30:19;55141.44;;;-146.72;72.11
40994;BME280;26722;43.212;27.932;2023-04-19T11:32:56;55107.66;;;-146.72;71.59
40994;BME280;26722;43.212;27.932;2023-04-19T11:35:23;55113.97;;;-146.72;70.55
40994;BME280;26722;43.212;27.932;2023-04-19T11:37:50;55111.88;;;-146.72;71.30
40994;BME280;26722;43.212;27.932;2023-04-19T11:40:17;55116.09;;;-146.72;71.82
40994;BME280;26722;43.212;27.932;2023-04-19T11:42:44;55124.53;;;-146.72;72.82
40994;BME280;26722;43.212;27.932;2023-04-19T11:45:10;55137.22;;;-146.72;73.24
40994;BME280;26722;43.212;27.932;2023-04-19T11:47:48;55128.75;;;-146.72;72.91
40994;BME280;26722;43.212;27.932;2023-04-19T11:50:40;55122.44;;;-146.72;74.31
40994;BME280;26722;43.212;27.932;2023-04-19T11:53:13;55135.09;;;-146.72;75.46
40994;BME280;26722;43.212;27.932;2023-04-19T11:55:50;55109.75;;;-146.72;76.00
40994;BME280;26722;43.212;27.932;2023-04-19T11:58:23;55120.31;;;-146.72;75.03
40994;BME280;26722;43.212;27.932;2023-04-19T12:00:50;55149.88;;;-146.72;74.76
40994;BME280;26722;43.212;27.932;2023-04-19T12:03:22;55135.09;;;-146.72;75.37
40994;BME280;26722;43.212;27.932;2023-04-19T12:05:54;55128.75;;;-146.72;75.06
40994;BME280;26722;43.212;27.932;2023-04-19T12:08:32;55116.09;;;-146.72;75.33
40994;BME280;26722;43.212;27.932;2023-04-19T12:10:58;55107.66;;;-146.72;73.95
40994;BME280;26722;43.212;27.932;2023-04-19T12:13:25;55132.97;;;-146.72;74.29
40994;BME280;26722;43.212;27.932;2023-04-19T12:15:51;55116.09;;;-146.72;74.12
40994;BME280;26722;43.212;27.932;2023-04-19T12:18:17;55118.19;;;-146.72;74.13
40994;BME280;26722;43.212;27.932;2023-04-19T12:20:44;55154.09;;;-146.72;73.29
40994;BME280;26722;43.212;27.932;2023-04-19T12:23:11;55097.09;;;-146.72;73.61
40994;BME280;26722;43.212;27.932;2023-04-19T12:25:42;55107.66;;;-146.72;74.00
40994;BME280;26722;43.212;27.932;2023-04-19T12:28:11;55120.31;;;-146.72;72.25
40994;BME280;26722;43.212;27.932;2023-04-19T12:30:38;55086.53;;;-146.72;71.59
40994;BME280;26722;43.212;27.932;2023-04-19T12:33:05;55094.97;;;-146.72;71.49